Time;durP1;ratioP1;P1;durP2;ratioP2;P2;SDS_P1;SDS_P2;PMS_P1;PMS_P2;Temp;Humidity;BMP_temperature;BMP_pressure;BME280_temperature;BME280_humidity;BME280_pressure;Samples;Min_cycle;Max_cycle;Signal;HPM_P1;HPM_P2
2023/05/15 00:01:46;;;;;;;40.03;26.13;;;;;;;10.08;100.00;101715.25;4971927;28;20080;-63
2023/05/15 00:04:11;;;;;;;46.28;27.95;;;;;;;10.06;100.00;101711.75;4987936;28;20035;-62
2023/05/15 00:06:37;;;;;;;43.53;27.80;;;;;;;10.05;100.00;101710.03;4987894;28;20050;-62
2023/05/15 00:09:02;;;;;;;38.58;26.20;;;;;;;10.06;100.00;101695.13;4973547;28;20149;-62
2023/05/15 00:11:28;;;;;;;40.53;26.02;;;;;;;10.01;100.00;101697.84;4968556;28;20038;-62
2023/05/15 00:13:53;;;;;;;45.38;26.98;;;;;;;10.02;100.00;101691.66;4968225;28;20023;-61
2023/05/15 00:16:19;;;;;;;39.33;26.33;;;;;;;10.03;100.00;101688.16;4972235;28;20034;-62
2023/05/15 00:18:44;;;;;;;45.17;25.58;;;;;;;9.94;100.00;101689.16;4987688;28;20193;-63
2023/05/15 00:21:10;;;;;;;40.92;22.90;;;;;;;9.88;100.00;101683.16;4986248;28;20030;-62
2023/05/15 00:23:35;;;;;;;40.45;22.45;;;;;;;9.85;100.00;101676.19;4969739;28;20014;-62
2023/05/15 00:26:00;;;;;;;39.28;22.88;;;;;;;9.86;100.00;101673.53;4975101;28;20034;-62
2023/05/15 00:28:26;;;;;;;35.88;21.63;;;;;;;9.82;100.00;101674.44;4987979;28;20153;-62
2023/05/15 00:30:51;;;;;;;32.45;21.15;;;;;;;9.77;100.00;101678.94;4987929;28;20137;-64
2023/05/15 00:33:16;;;;;;;31.10;20.35;;;;;;;9.74;100.00;101678.97;4987608;28;20014;-61
2023/05/15 00:35:42;;;;;;;31.40;21.25;;;;;;;9.73;100.00;101669.38;4987267;28;20023;-62
2023/05/15 00:38:07;;;;;;;32.47;21.25;;;;;;;9.75;100.00;101671.97;4988469;28;20330;-62
2023/05/15 00:40:33;;;;;;;32.55;20.90;;;;;;;9.79;100.00;101677.16;4988354;28;20429;-62
2023/05/15 00:42:59;;;;;;;36.40;20.70;;;;;;;9.81;100.00;101671.88;4966685;28;20082;-62
2023/05/15 00:45:25;;;;;;;30.55;20.13;;;;;;;9.81;100.00;101677.13;4968701;28;20404;-63
2023/05/15 00:47:52;;;;;;;34.90;20.55;;;;;;;9.80;100.00;101672.75;5017272;28;20392;-62
2023/05/15 00:50:17;;;;;;;33.38;20.55;;;;;;;9.76;100.00;101677.22;5006424;28;20453;-63
2023/05/15 00:52:43;;;;;;;39.08;21.70;;;;;;;9.76;100.00;101669.31;4990822;28;20034;-61
2023/05/15 00:55:08;;;;;;;29.70;19.73;;;;;;;9.76;100.00;101666.69;4988242;28;20528;-61
2023/05/15 00:57:34;;;;;;;30.08;18.95;;;;;;;9.69;100.00;101675.56;4986924;28;20030;-62
2023/05/15 01:00:00;;;;;;;27.98;19.83;;;;;;;9.72;100.00;101671.13;4986680;28;20033;-63
2023/05/15 01:02:25;;;;;;;34.03;20.67;;;;;;;9.73;100.00;101672.00;4982444;28;20508;-62
2023/05/15 01:04:51;;;;;;;37.65;21.77;;;;;;;9.75;100.00;101674.59;4965818;28;20039;-62
2023/05/15 01:07:16;;;;;;;32.08;20.27;;;;;;;9.74;100.00;101676.34;4976088;28;20166;-62
2023/05/15 01:09:44;;;;;;;38.80;21.50;;;;;;;9.71;100.00;101665.88;4987511;28;20093;-64
2023/05/15 01:12:10;;;;;;;34.63;19.97;;;;;;;9.65;100.00;101668.59;4987992;28;20113;-64
2023/05/15 01:14:36;;;;;;;34.25;20.73;;;;;;;9.62;100.00;101666.91;4988033;28;20644;-61
2023/05/15 01:17:01;;;;;;;31.85;21.67;;;;;;;9.61;100.00;101660.75;4986587;28;20045;-62
2023/05/15 01:19:27;;;;;;;28.88;21.42;;;;;;;9.58;100.00;101660.81;4986865;28;20022;-64
2023/05/15 01:22:04;;;;;;;36.92;21.98;;;;;;;9.60;100.00;101661.66;4986332;28;20662;-63
2023/05/15 01:24:58;;;;;;;32.88;20.95;;;;;;;9.59;100.00;101662.56;4987861;28;20691;-63
2023/05/15 01:27:30;;;;;;;28.45;20.15;;;;;;;9.55;100.00;101665.25;4985951;28;20555;-63
2023/05/15 01:30:17;;;;;;;35.25;22.58;;;;;;;9.54;100.00;101659.13;4986028;28;20030;-63
2023/05/15 01:32:52;;;;;;;34.28;21.60;;;;;;;9.55;100.00;101662.63;4976904;28;20105;-58
2023/05/15 01:35:22;;;;;;;30.70;22.17;;;;;;;9.53;100.00;101656.50;4968318;28;20469;-61
2023/05/15 01:37:51;;;;;;;35.83;21.15;;;;;;;9.45;100.00;101651.41;4986554;28;20027;-62
2023/05/15 01:40:18;;;;;;;32.70;20.33;;;;;;;9.41;100.00;101644.44;4966664;28;20477;-62
2023/05/15 01:42:51;;;;;;;35.63;21.38;;;;;;;9.37;100.00;101648.88;4996228;28;20030;-62
2023/05/15 01:45:17;;;;;;;34.40;21.60;;;;;;;9.33;100.00;101648.06;4983483;28;20042;-62
2023/05/15 01:47:44;;;;;;;32.65;21.02;;;;;;;9.31;100.00;101651.59;4974639;28;20053;-64
2023/05/15 01:50:10;;;;;;;28.35;20.20;;;;;;;9.28;100.00;101652.53;4986626;28;20030;-63
2023/05/15 01:52:39;;;;;;;30.23;21.55;;;;;;;9.31;100.00;101643.72;4985685;28;20022;-63
2023/05/15 01:55:07;;;;;;;35.60;22.55;;;;;;;9.25;100.00;101646.44;4986447;28;20041;-62
2023/05/15 01:57:33;;;;;;;35.53;20.50;;;;;;;9.25;100.00;101652.59;4986664;28;20042;-63
2023/05/15 02:00:00;;;;;;;34.47;22.35;;;;;;;9.27;100.00;101649.94;5002187;28;20031;-62
2023/05/15 02:02:26;;;;;;;41.72;23.85;;;;;;;9.30;100.00;101649.88;4985443;28;20026;-63
2023/05/15 02:04:52;;;;;;;42.97;23.48;;;;;;;9.29;100.00;101656.91;4984863;28;20035;-62
2023/05/15 02:07:17;;;;;;;39.13;23.23;;;;;;;9.28;100.00;101649.91;5001716;28;20351;-63
2023/05/15 02:09:43;;;;;;;39.03;23.38;;;;;;;9.29;100.00;101656.00;4970226;28;20105;-63
2023/05/15 02:12:09;;;;;;;40.78;24.13;;;;;;;9.24;100.00;101653.44;4968023;28;20093;-63
2023/05/15 02:14:35;;;;;;;39.05;25.15;;;;;;;9.23;100.00;101651.72;4978361;28;20031;-62
2023/05/15 02:17:01;;;;;;;43.65;25.30;;;;;;;9.25;100.00;101655.22;4987242;28;20058;-63
2023/05/15 02:19:26;;;;;;;42.83;26.50;;;;;;;9.26;100.00;101649.06;4984466;28;20034;-63
2023/05/15 02:21:52;;;;;;;51.63;27.63;;;;;;;9.29;100.00;101649.00;4985612;28;20034;-63
2023/05/15 02:24:17;;;;;;;44.63;26.83;;;;;;;9.27;100.00;101645.50;4986680;28;20041;-62
2023/05/15 02:27:09;;;;;;;62.90;29.52;;;;;;;9.29;100.00;101649.00;4986620;28;20108;-62
2023/05/15 02:30:11;;;;;;;44.75;27.05;;;;;;;9.28;100.00;101641.13;4977722;28;20039;-63
2023/05/15 02:32:44;;;;;;;48.60;28.52;;;;;;;9.27;100.00;101637.63;4967112;28;20081;-63
2023/05/15 02:35:18;;;;;;;45.13;27.50;;;;;;;9.23;100.00;101636.81;4977541;28;20358;-63
2023/05/15 02:37:47;;;;;;;49.85;30.35;;;;;;;9.25;100.00;101644.69;5001821;28;20046;-61
2023/05/15 02:40:12;;;;;;;53.75;32.25;;;;;;;9.27;100.00;101636.78;4985461;28;20034;-64
2023/05/15 02:42:39;;;;;;;60.28;33.03;;;;;;;9.28;100.00;101639.38;4987520;28;20033;-63
2023/05/15 02:45:06;;;;;;;67.18;34.85;;;;;;;9.25;100.00;101639.44;4988206;28;20084;-63
2023/05/15 02:47:32;;;;;;;61.75;33.85;;;;;;;9.28;100.00;101634.13;4990120;28;20034;-64
2023/05/15 02:49:58;;;;;;;64.85;34.67;;;;;;;9.25;100.00;101631.53;4979431;28;20038;-63
2023/05/15 02:52:24;;;;;;;62.10;32.40;;;;;;;9.23;100.00;101625.44;4985926;28;20608;-63
2023/05/15 02:54:49;;;;;;;65.35;34.38;;;;;;;9.16;100.00;101629.03;4977024;28;20049;-62
2023/05/15 02:57:14;;;;;;;68.25;33.95;;;;;;;9.13;100.00;101629.97;4989740;28;20023;-61
2023/05/15 02:59:40;;;;;;;66.97;33.55;;;;;;;9.09;100.00;101623.88;4985310;28;20035;-63
2023/05/15 03:02:05;;;;;;;64.10;33.40;;;;;;;9.07;100.00;101627.44;4970680;28;20061;-62
2023/05/15 03:04:31;;;;;;;59.33;32.60;;;;;;;9.05;100.00;101627.44;4968990;28;20793;-62
2023/05/15 03:06:56;;;;;;;66.75;35.42;;;;;;;9.09;100.00;101625.63;4970890;28;20492;-63
2023/05/15 03:09:21;;;;;;;70.22;35.67;;;;;;;9.04;100.00;101625.72;4968936;28;20047;-63
2023/05/15 03:11:47;;;;;;;63.03;33.45;;;;;;;8.99;100.00;101627.53;4987968;28;20061;-63
2023/05/15 03:14:12;;;;;;;66.18;31.98;;;;;;;8.98;100.00;101621.41;4989727;28;20050;-63
2023/05/15 03:16:37;;;;;;;70.82;36.42;;;;;;;9.00;100.00;101624.00;4989825;28;20034;-63
2023/05/15 03:19:03;;;;;;;72.47;36.58;;;;;;;8.99;100.00;101622.28;4988444;28;20106;-63
2023/05/15 03:21:28;;;;;;;72.18;35.95;;;;;;;8.96;100.00;101623.19;4989254;28;20105;-62
2023/05/15 03:23:54;;;;;;;82.28;38.78;;;;;;;8.95;100.00;101631.09;4989284;28;20114;-63
2023/05/15 03:26:20;;;;;;;78.75;39.85;;;;;;;9.02;100.00;101627.50;4987778;28;20042;-62
2023/05/15 03:28:46;;;;;;;74.65;40.42;;;;;;;9.07;100.00;101625.69;4989319;28;20035;-62
2023/05/15 03:31:13;;;;;;;81.00;39.58;;;;;;;9.14;100.00;101630.81;4985268;28;20400;-62
2023/05/15 03:33:38;;;;;;;69.32;36.28;;;;;;;9.19;100.00;101637.78;4989833;28;20018;-61
2023/05/15 03:36:04;;;;;;;69.53;35.78;;;;;;;9.08;100.00;101637.94;5002967;28;20433;-62
2023/05/15 03:38:29;;;;;;;69.25;34.95;;;;;;;9.10;100.00;101632.66;4989843;28;20054;-62
2023/05/15 03:40:55;;;;;;;67.72;32.75;;;;;;;9.12;100.00;101637.88;4988994;28;20466;-62
2023/05/15 03:43:20;;;;;;;64.70;32.40;;;;;;;9.18;100.00;101640.41;4988922;28;20158;-62
2023/05/15 03:45:45;;;;;;;67.13;33.33;;;;;;;9.24;100.00;101640.31;4988668;28;20034;-64
2023/05/15 03:48:11;;;;;;;67.32;35.03;;;;;;;9.32;100.00;101641.06;4988544;28;20045;-62
2023/05/15 03:50:36;;;;;;;66.78;33.22;;;;;;;9.37;100.00;101642.75;4988671;28;20039;-62
2023/05/15 03:53:02;;;;;;;67.70;36.75;;;;;;;9.48;100.00;101644.31;5002234;28;20722;-62
2023/05/15 03:55:27;;;;;;;67.65;35.55;;;;;;;9.49;100.00;101653.09;5003986;28;20117;-62
2023/05/15 03:57:52;;;;;;;61.47;34.55;;;;;;;9.50;100.00;101652.19;4988565;28;20105;-62
2023/05/15 04:00:18;;;;;;;61.42;32.92;;;;;;;9.56;100.00;101654.72;4988749;28;20528;-63
2023/05/15 04:02:43;;;;;;;61.92;32.42;;;;;;;9.58;100.00;101647.66;4970111;28;20031;-63
2023/05/15 04:05:09;;;;;;;56.17;32.70;;;;;;;9.61;100.00;101641.50;4969394;28;20034;-65
2023/05/15 04:07:35;;;;;;;62.30;35.17;;;;;;;9.64;100.00;101641.44;4987147;28;20034;-62
2023/05/15 04:10:00;;;;;;;61.60;33.60;;;;;;;9.67;100.00;101635.25;4987959;28;20117;-62
2023/05/15 04:12:28;;;;;;;65.40;36.55;;;;;;;9.70;100.00;101635.19;4987242;28;20421;-62
2023/05/15 04:15:14;;;;;;;67.32;36.42;;;;;;;9.73;100.00;101636.00;4988336;28;20034;-62
2023/05/15 04:17:42;;;;;;;77.30;41.17;;;;;;;9.78;100.00;101628.03;4969650;28;20078;-62
2023/05/15 04:20:08;;;;;;;73.07;41.95;;;;;;;9.88;100.00;101625.22;4988680;28;20019;-61
2023/05/15 04:22:34;;;;;;;67.20;40.38;;;;;;;9.96;100.00;101615.41;4987960;28;20031;-62
2023/05/15 04:24:59;;;;;;;78.78;42.67;;;;;;;10.04;100.00;101624.06;4988508;28;20450;-62
2023/05/15 04:27:25;;;;;;;80.47;43.75;;;;;;;10.16;100.00;101622.06;4983236;28;20065;-62
2023/05/15 04:29:51;;;;;;;70.63;42.67;;;;;;;10.27;100.00;101625.38;4971185;28;20031;-62
2023/05/15 04:32:16;;;;;;;75.15;43.08;;;;;;;10.33;100.00;101630.50;4976459;28;20041;-62
2023/05/15 04:34:41;;;;;;;76.88;43.85;;;;;;;10.45;100.00;101633.81;4971964;28;20019;-62
2023/05/15 04:37:07;;;;;;;75.00;42.80;;;;;;;10.52;100.00;101632.81;4988007;28;20035;-62
2023/05/15 04:39:32;;;;;;;74.88;44.72;;;;;;;10.63;100.00;101631.69;4987532;28;20034;-62
2023/05/15 04:41:57;;;;;;;71.85;44.22;;;;;;;10.76;100.00;101638.44;4986406;28;20117;-62
2023/05/15 04:44:23;;;;;;;69.45;43.03;;;;;;;10.89;100.00;101630.28;4978307;28;20073;-62
2023/05/15 04:46:48;;;;;;;64.07;40.47;;;;;;;10.98;100.00;101632.69;4985048;28;20054;-62
2023/05/15 04:49:13;;;;;;;57.53;35.92;;;;;;;11.10;100.00;101636.81;4968353;28;20706;-62
2023/05/15 04:51:40;;;;;;;48.83;33.67;;;;;;;11.16;100.00;101631.38;4970331;28;20026;-61
2023/05/15 04:54:06;;;;;;;51.47;34.10;;;;;;;11.17;100.00;101635.75;4987159;28;20066;-61
2023/05/15 04:56:31;;;;;;;44.00;29.52;;;;;;;11.23;100.00;101632.97;4992901;28;20026;-64
2023/05/15 04:58:56;;;;;;;41.28;28.50;;;;;;;11.25;100.00;101628.53;4979235;28;20035;-62
2023/05/15 05:01:22;;;;;;;43.50;29.95;;;;;;;11.24;100.00;101629.44;4980203;28;20054;-59
2023/05/15 05:03:47;;;;;;;35.30;25.90;;;;;;;11.46;100.00;101623.63;4966441;28;20086;-61
2023/05/15 05:06:12;;;;;;;34.50;25.17;;;;;;;11.56;100.00;101633.97;4973773;28;20027;-62
2023/05/15 05:08:38;;;;;;;40.20;25.00;;;;;;;11.41;100.00;101616.75;4987159;28;20113;-61
2023/05/15 05:11:03;;;;;;;34.00;24.88;;;;;;;11.57;100.00;101618.09;4983001;28;20039;-61
2023/05/15 05:13:28;;;;;;;28.63;22.52;;;;;;;11.75;100.00;101626.44;4968876;28;20063;-63
2023/05/15 05:15:54;;;;;;;32.10;24.23;;;;;;;11.85;100.00;101622.66;4975077;28;20041;-62
2023/05/15 05:18:19;;;;;;;30.65;22.48;;;;;;;11.94;100.00;101624.16;4978391;28;20089;-61
2023/05/15 05:20:44;;;;;;;29.33;21.55;;;;;;;12.05;100.00;101623.00;4977079;28;20042;-64
2023/05/15 05:23:10;;;;;;;29.80;21.83;;;;;;;12.12;100.00;101624.59;4978316;28;20480;-62
2023/05/15 05:25:35;;;;;;;32.85;21.95;;;;;;;12.17;100.00;101620.06;4983998;28;20033;-62
2023/05/15 05:28:00;;;;;;;23.67;18.88;;;;;;;12.18;100.00;101620.91;5001483;28;20134;-61
2023/05/15 05:30:26;;;;;;;26.60;18.55;;;;;;;12.13;100.00;101621.91;4985797;28;20131;-61
2023/05/15 05:32:51;;;;;;;23.73;19.65;;;;;;;12.17;100.00;101616.56;4983217;28;20172;-63
2023/05/15 05:35:16;;;;;;;26.42;19.17;;;;;;;12.19;100.00;101623.50;4995088;28;20445;-62
2023/05/15 05:37:42;;;;;;;26.40;19.17;;;;;;;12.26;100.00;101618.94;4981523;28;20037;-64
2023/05/15 05:40:08;;;;;;;27.05;20.30;;;;;;;12.31;100.00;101622.28;4980232;28;20434;-62
2023/05/15 05:42:33;;;;;;;28.67;20.23;;;;;;;12.16;100.00;101618.31;4977790;28;20033;-63
2023/05/15 05:44:59;;;;;;;28.27;20.05;;;;;;;12.34;100.00;101618.72;4976766;28;20027;-62
2023/05/15 05:47:24;;;;;;;29.65;21.85;;;;;;;12.46;100.00;101618.34;4977087;28;20061;-61
2023/05/15 05:49:49;;;;;;;24.38;20.33;;;;;;;12.61;100.00;101621.44;4971933;28;20494;-62
2023/05/15 05:52:15;;;;;;;27.67;20.35;;;;;;;12.68;100.00;101617.72;4970312;28;20462;-61
2023/05/15 05:54:41;;;;;;;28.23;20.40;;;;;;;12.82;100.00;101614.63;4975350;28;20117;-62
2023/05/15 05:57:08;;;;;;;26.70;19.50;;;;;;;12.98;100.00;101615.00;4976225;28;20026;-63
2023/05/15 05:59:33;;;;;;;27.98;19.50;;;;;;;12.97;100.00;101607.13;4978103;28;20545;-62
2023/05/15 06:01:59;;;;;;;27.58;18.40;;;;;;;13.06;100.00;101608.66;4974653;28;20148;-62
2023/05/15 06:04:24;;;;;;;24.42;19.02;;;;;;;13.13;100.00;101611.00;4973265;28;20030;-62
2023/05/15 06:06:49;;;;;;;23.63;19.05;;;;;;;13.05;100.00;101606.88;4987587;28;20453;-63
2023/05/15 06:09:15;;;;;;;25.90;21.25;;;;;;;13.16;100.00;101615.38;4977397;28;20047;-62
2023/05/15 06:11:41;;;;;;;26.38;21.63;;;;;;;13.19;100.00;101606.44;4976179;28;20053;-62
2023/05/15 06:14:07;;;;;;;32.13;21.17;;;;;;;13.18;100.00;101604.72;4971845;28;20033;-63
2023/05/15 06:16:32;;;;;;;26.60;20.88;;;;;;;13.16;100.00;101615.38;4982346;28;20071;-60
2023/05/15 06:18:57;;;;;;;29.23;19.98;;;;;;;13.27;100.00;101609.69;4966656;28;20026;-61
2023/05/15 06:21:23;;;;;;;26.42;20.98;;;;;;;13.34;100.00;101605.09;4988993;28;20034;-64
2023/05/15 06:23:48;;;;;;;28.50;20.90;;;;;;;13.36;100.00;101609.41;4990267;28;20407;-63
2023/05/15 06:26:13;;;;;;;28.63;21.13;;;;;;;13.23;100.00;101605.44;4982169;28;20049;-62
2023/05/15 06:28:39;;;;;;;40.90;24.95;;;;;;;13.22;100.00;101604.56;4971885;28;20477;-62
2023/05/15 06:31:04;;;;;;;34.17;22.48;;;;;;;13.16;100.00;101603.91;4984067;28;20031;-63
2023/05/15 06:33:30;;;;;;;33.35;23.38;;;;;;;13.12;100.00;101603.13;4990202;28;20026;-64
2023/05/15 06:35:55;;;;;;;28.00;21.50;;;;;;;13.13;100.00;101600.44;4989198;28;20034;-64
2023/05/15 06:38:20;;;;;;;27.60;20.65;;;;;;;13.10;100.00;101594.38;4991126;28;20076;-62
2023/05/15 06:40:46;;;;;;;29.38;22.90;;;;;;;13.18;100.00;101591.50;4987041;28;20042;-63
2023/05/15 06:43:11;;;;;;;33.70;22.55;;;;;;;13.40;100.00;101596.94;4990411;28;20037;-63
2023/05/15 06:45:36;;;;;;;27.42;22.30;;;;;;;13.52;100.00;101593.88;4989898;28;20054;-62
2023/05/15 06:48:02;;;;;;;30.65;22.63;;;;;;;13.77;100.00;101605.44;4971684;28;20326;-62
2023/05/15 06:50:27;;;;;;;32.75;22.45;;;;;;;13.75;100.00;101601.94;4970395;28;20122;-63
2023/05/15 06:52:53;;;;;;;31.15;22.08;;;;;;;13.77;100.00;101605.44;4970154;28;20035;-64
2023/05/15 06:55:19;;;;;;;27.75;22.20;;;;;;;13.80;100.00;101607.97;4970980;28;20034;-62
2023/05/15 06:57:44;;;;;;;30.48;22.50;;;;;;;13.96;100.00;101616.22;4970358;28;20085;-64
2023/05/15 07:00:11;;;;;;;29.58;20.58;;;;;;;14.28;100.00;101610.69;4971614;28;20509;-63
2023/05/15 07:02:36;;;;;;;28.45;21.88;;;;;;;14.30;100.00;101616.75;4969607;28;20031;-63
2023/05/15 07:05:02;;;;;;;27.88;20.27;;;;;;;14.43;100.00;101611.00;4970155;28;21250;-65
2023/05/15 07:07:27;;;;;;;32.00;22.88;;;;;;;14.22;100.00;101618.84;4983786;28;20022;-63
2023/05/15 07:09:52;;;;;;;27.40;19.33;;;;;;;14.51;100.00;101623.06;4978612;28;20129;-62
2023/05/15 07:12:18;;;;;;;24.75;19.00;;;;;;;14.58;100.00;101618.41;4996162;28;20121;-64
2023/05/15 07:14:43;;;;;;;30.65;22.20;;;;;;;14.57;100.00;101616.66;4986484;28;20041;-65
2023/05/15 07:17:08;;;;;;;28.08;21.52;;;;;;;14.48;100.00;101614.38;4978429;28;20077;-61
2023/05/15 07:19:34;;;;;;;29.10;21.92;;;;;;;14.42;100.00;101614.59;4993011;28;20030;-64
2023/05/15 07:21:59;;;;;;;27.45;21.88;;;;;;;14.41;100.00;101616.38;4979893;28;20109;-62
2023/05/15 07:24:24;;;;;;;27.58;21.48;;;;;;;14.40;100.00;101612.88;4981869;28;20037;-64
2023/05/15 07:26:50;;;;;;;25.17;20.45;;;;;;;14.62;100.00;101614.69;4981827;28;20043;-64
2023/05/15 07:29:15;;;;;;;25.90;20.63;;;;;;;14.48;100.00;101617.88;4981832;28;20447;-63
2023/05/15 07:31:43;;;;;;;29.13;21.42;;;;;;;14.51;100.00;101619.56;4977816;28;20026;-64
2023/05/15 07:34:09;;;;;;;28.40;20.08;;;;;;;14.54;100.00;101624.72;4984112;28;20481;-63
2023/05/15 07:36:35;;;;;;;27.90;18.50;;;;;;;14.62;100.00;101622.66;4977561;28;20519;-64
2023/05/15 07:39:00;;;;;;;23.27;18.30;;;;;;;14.68;100.00;101624.19;4977614;28;20153;-63
2023/05/15 07:41:25;;;;;;;23.05;17.60;;;;;;;14.66;100.00;101628.72;4983332;28;20042;-63
2023/05/15 07:43:51;;;;;;;22.02;17.00;;;;;;;14.60;100.00;101635.09;4983634;28;20022;-63
2023/05/15 07:46:16;;;;;;;26.92;17.83;;;;;;;14.48;100.00;101624.97;4975597;28;20022;-64
2023/05/15 07:48:41;;;;;;;24.98;17.02;;;;;;;14.48;100.00;101627.63;4979132;28;20015;-62
2023/05/15 07:51:07;;;;;;;24.52;18.27;;;;;;;14.49;100.00;101637.31;4977181;28;20022;-64
2023/05/15 07:53:32;;;;;;;22.60;18.23;;;;;;;14.36;100.00;101634.25;4984556;28;20034;-63
2023/05/15 07:55:58;;;;;;;30.58;19.23;;;;;;;14.21;100.00;101635.69;4984692;28;20117;-62
2023/05/15 07:58:23;;;;;;;28.70;18.58;;;;;;;14.16;100.00;101633.19;4975540;28;20116;-61
2023/05/15 08:00:49;;;;;;;26.50;20.25;;;;;;;14.07;100.00;101629.09;4975628;28;20045;-63
2023/05/15 08:03:14;;;;;;;27.75;20.58;;;;;;;14.09;100.00;101634.34;4974283;28;20387;-63
2023/05/15 08:05:40;;;;;;;28.98;21.10;;;;;;;14.16;100.00;101633.19;4978301;28;20105;-64
2023/05/15 08:08:05;;;;;;;26.35;19.92;;;;;;;14.21;100.00;101633.03;4987670;28;20023;-63
2023/05/15 08:10:30;;;;;;;29.73;22.52;;;;;;;14.21;100.00;101635.69;4986204;28;20050;-61
2023/05/15 08:12:56;;;;;;;28.88;23.05;;;;;;;14.24;100.00;101633.78;4977171;28;20034;-63
2023/05/15 08:15:22;;;;;;;28.75;22.27;;;;;;;14.32;100.00;101646.75;4980698;28;20031;-64
2023/05/15 08:17:47;;;;;;;29.77;24.15;;;;;;;14.31;100.00;101642.38;4981071;28;20038;-64
2023/05/15 08:20:13;;;;;;;34.83;24.27;;;;;;;14.35;100.00;101643.09;4980529;28;20034;-63
2023/05/15 08:22:38;;;;;;;35.47;25.17;;;;;;;14.28;100.00;101634.53;4974480;28;20042;-64
2023/05/15 08:25:05;;;;;;;35.70;26.48;;;;;;;14.27;100.00;101636.31;4975353;28;20030;-61
2023/05/15 08:27:30;;;;;;;38.22;28.23;;;;;;;14.22;100.00;101632.97;4979997;28;20477;-62
2023/05/15 08:29:56;;;;;;;35.22;26.95;;;;;;;14.17;100.00;101626.13;4986129;28;20098;-62
2023/05/15 08:32:21;;;;;;;39.67;28.48;;;;;;;14.22;100.00;101634.75;4985990;28;20528;-63
2023/05/15 08:34:47;;;;;;;38.65;27.85;;;;;;;14.27;100.00;101633.66;4985801;28;20109;-62
2023/05/15 08:37:12;;;;;;;39.90;28.13;;;;;;;14.26;100.00;101633.72;4979464;28;20042;-62
2023/05/15 08:39:37;;;;;;;42.03;31.33;;;;;;;14.22;100.00;101642.72;4968033;28;20075;-62
2023/05/15 08:42:24;;;;;;;40.75;30.80;;;;;;;14.19;100.00;101632.22;4972299;28;20104;-61
2023/05/15 08:44:49;;;;;;;42.00;30.67;;;;;;;14.21;100.00;101646.28;4986977;28;20033;-63
2023/05/15 08:47:15;;;;;;;45.67;31.00;;;;;;;14.26;100.00;101634.59;4986874;28;20018;-62
2023/05/15 08:50:16;;;;;;;44.15;30.30;;;;;;;14.08;100.00;101630.81;4988698;28;20022;-61
2023/05/15 08:52:45;;;;;;;48.95;32.15;;;;;;;14.23;100.00;101642.66;4889127;29;20032;-62
2023/05/15 08:55:12;;;;;;;49.53;32.90;;;;;;;14.15;100.00;101639.44;4975662;28;20122;-63
2023/05/15 08:57:38;;;;;;;46.40;32.10;;;;;;;14.13;100.00;101636.84;4983632;28;20101;-63
2023/05/15 09:00:07;;;;;;;46.90;30.88;;;;;;;14.22;100.00;101635.63;4977077;28;20493;-62
2023/05/15 09:02:34;;;;;;;47.10;33.47;;;;;;;14.12;100.00;101643.03;4975436;28;20073;-62
2023/05/15 09:04:59;;;;;;;53.97;36.38;;;;;;;14.11;100.00;101643.97;4980075;28;20045;-61
2023/05/15 09:07:24;;;;;;;53.63;34.83;;;;;;;14.09;100.00;101645.78;4972621;28;20034;-62
2023/05/15 09:09:50;;;;;;;50.53;33.15;;;;;;;14.11;100.00;101646.63;4989945;28;20047;-61
2023/05/15 09:12:15;;;;;;;51.33;33.47;;;;;;;14.14;100.00;101646.50;4978475;28;20118;-63
2023/05/15 09:14:44;;;;;;;53.90;35.05;;;;;;;14.06;100.00;101648.53;4984593;28;20311;-62
2023/05/15 09:17:10;;;;;;;54.95;35.55;;;;;;;14.08;100.00;101648.50;4973465;28;20537;-60
2023/05/15 09:19:38;;;;;;;62.97;36.50;;;;;;;14.14;100.00;101651.81;4976984;28;20027;-65
2023/05/15 09:22:23;;;;;;;58.20;35.20;;;;;;;14.21;100.00;101652.44;4976761;28;20471;-62
2023/05/15 09:24:51;;;;;;;55.30;35.03;;;;;;;14.17;100.00;101649.97;4977477;28;20126;-63
2023/05/15 09:27:17;;;;;;;58.83;35.55;;;;;;;14.12;100.00;101653.63;4975679;28;20023;-62
2023/05/15 09:29:42;;;;;;;62.55;36.95;;;;;;;14.11;100.00;101645.75;4973045;28;20027;-64
2023/05/15 09:32:09;;;;;;;66.45;37.35;;;;;;;14.18;100.00;101651.69;4975296;28;20034;-61
2023/05/15 09:34:37;;;;;;;62.42;36.72;;;;;;;14.21;100.00;101643.63;4978527;28;20080;-62
2023/05/15 09:37:05;;;;;;;55.45;34.63;;;;;;;14.40;100.00;101650.00;4975830;28;20057;-60
2023/05/15 09:39:32;;;;;;;55.92;34.63;;;;;;;14.61;100.00;101660.72;4982775;28;20015;-62
2023/05/15 09:42:07;;;;;;;52.35;32.90;;;;;;;14.75;100.00;101651.38;4971908;28;20027;-62
2023/05/15 09:44:33;;;;;;;55.15;34.58;;;;;;;14.91;100.00;101652.50;4968761;28;20551;-62
2023/05/15 09:46:59;;;;;;;49.63;33.08;;;;;;;15.02;100.00;101643.28;4970557;28;20031;-63
2023/05/15 09:49:25;;;;;;;50.78;33.33;;;;;;;15.19;100.00;101639.94;4981923;28;20030;-62
2023/05/15 09:51:51;;;;;;;50.15;31.10;;;;;;;15.27;100.00;101643.13;4983793;28;20109;-62
2023/05/15 09:54:17;;;;;;;42.42;29.92;;;;;;;15.37;100.00;101646.28;4974973;28;20451;-62
2023/05/15 09:56:44;;;;;;;42.58;28.50;;;;;;;15.43;100.00;101646.94;4986196;28;20588;-63
2023/05/15 09:59:13;;;;;;;41.35;28.95;;;;;;;15.40;100.00;101651.47;4986639;28;20027;-61
2023/05/15 10:01:38;;;;;;;;;;;;;;;15.33;100.00;101657.97;4986348;28;20049;-61
2023/05/15 10:04:05;;;;;;;39.87;26.47;;;;;;;15.23;100.00;101646.84;4984839;28;20365;-60
2023/05/15 10:06:41;;;;;;;37.42;25.08;;;;;;;14.99;100.00;101660.16;4986087;28;20328;-64
2023/05/15 10:09:06;;;;;;;33.40;24.50;;;;;;;14.97;100.00;101661.16;4985915;28;20046;-62
2023/05/15 10:11:36;;;;;;;30.08;21.52;;;;;;;14.99;100.00;101661.97;4986444;28;20591;-63
2023/05/15 10:14:07;;;;;;;29.33;22.10;;;;;;;14.98;100.00;101661.09;4986456;28;20022;-63
2023/05/15 10:16:36;;;;;;;29.67;22.70;;;;;;;15.03;100.00;101667.06;4984562;28;20030;-62
2023/05/15 10:19:03;;;;;;;32.65;24.40;;;;;;;15.00;100.00;101661.91;4986285;28;20022;-63
2023/05/15 10:21:31;;;;;;;34.13;24.20;;;;;;;14.95;100.00;101673.63;4980535;28;20050;-63
2023/05/15 10:23:59;;;;;;;30.75;21.17;;;;;;;15.07;100.00;101666.97;4985725;28;20088;-63
2023/05/15 10:26:44;;;;;;;28.85;20.27;;;;;;;15.01;100.00;101668.94;5000829;28;20122;-62
2023/05/15 10:29:11;;;;;;;27.65;20.58;;;;;;;14.98;100.00;101669.06;4984730;28;20093;-62
2023/05/15 10:31:38;;;;;;;31.52;22.33;;;;;;;14.93;100.00;101670.19;4986084;28;20057;-62
2023/05/15 10:34:04;;;;;;;32.03;23.48;;;;;;;14.88;100.00;101668.56;4986948;28;20524;-62
2023/05/15 10:36:34;;;;;;;32.67;21.25;;;;;;;14.98;100.00;101674.38;4975107;28;20264;-62
2023/05/15 10:39:00;;;;;;;27.08;19.38;;;;;;;15.03;100.00;101664.41;4971149;28;20122;-64
2023/05/15 10:41:28;;;;;;;24.60;18.83;;;;;;;15.21;100.00;101666.41;4986808;28;20074;-63
2023/05/15 10:43:54;;;;;;;21.00;16.50;;;;;;;15.56;100.00;101663.25;4986002;28;20113;-61
2023/05/15 10:46:19;;;;;;;20.02;15.13;;;;;;;15.60;100.00;101664.84;4984816;28;20023;-61
2023/05/15 10:48:45;;;;;;;23.25;16.65;;;;;;;15.59;100.00;101650.69;4984804;28;20427;-63
2023/05/15 10:51:15;;;;;;;23.85;14.85;;;;;;;15.54;100.00;101661.50;4986252;28;20034;-62
2023/05/15 10:53:41;;;;;;;19.67;13.38;;;;;;;15.42;100.00;101656.72;4986104;28;20022;-62
2023/05/15 10:56:12;;;;;;;15.43;12.55;;;;;;;15.65;100.00;101663.72;4985793;28;20030;-61
2023/05/15 10:58:37;;;;;;;17.63;12.38;;;;;;;15.82;100.00;101663.91;4995322;28;20035;-62
2023/05/15 11:01:02;;;;;;;20.90;12.30;;;;;;;16.00;100.00;101662.28;4979892;28;20499;-64
2023/05/15 11:03:38;;;;;;;15.85;11.95;;;;;;;16.01;100.00;101666.66;4985744;28;20492;-63